Time;durP1;ratioP1;P1;durP2;ratioP2;P2;SDS_P1;SDS_P2;PMS_P1;PMS_P2;Temp;Humidity;BMP_temperature;BMP_pressure;BME280_temperature;BME280_humidity;BME280_pressure;Samples;Min_cycle;Max_cycle;Signal;HPM_P1;HPM_P2
2021/12/26 00:00:31;;;;;;;5.95;4.05;;;;;;;-0.44;78.86;96113.72;5114475;28;20019;-68
2021/12/26 00:02:58;;;;;;;6.37;4.07;;;;;;;-0.46;79.01;96107.69;5114363;28;20073;-65
2021/12/26 00:05:25;;;;;;;6.28;4.53;;;;;;;-0.44;78.96;96114.56;5114416;28;20072;-65
2021/12/26 00:07:51;;;;;;;5.70;4.25;;;;;;;-0.47;78.90;96111.13;5114261;28;20112;-66
2021/12/26 00:10:20;;;;;;;5.18;3.90;;;;;;;-0.43;78.95;96108.56;5114163;27;20157;-67
2021/12/26 00:12:46;;;;;;;7.88;4.72;;;;;;;-0.44;79.01;96106.00;5114142;28;20027;-66
2021/12/26 00:15:12;;;;;;;6.72;5.18;;;;;;;-0.47;79.28;96117.16;5114125;28;20034;-67
2021/12/26 00:17:38;;;;;;;7.07;5.55;;;;;;;-0.44;80.62;96113.72;5114100;28;20517;-66
2021/12/26 00:20:06;;;;;;;7.22;4.72;;;;;;;-0.35;80.49;96116.28;5114049;28;20473;-65
2021/12/26 00:22:32;;;;;;;8.88;5.03;;;;;;;-0.33;79.87;96122.25;5113784;28;20363;-64
2021/12/26 00:24:57;;;;;;;9.80;5.72;;;;;;;-0.27;79.22;96111.97;5113943;28;20111;-67
2021/12/26 00:27:23;;;;;;;5.30;4.45;;;;;;;-0.28;78.83;96130.81;5114021;28;20099;-65
2021/12/26 00:29:49;;;;;;;5.60;4.30;;;;;;;-0.25;79.21;96132.53;5113445;28;20020;-67
2021/12/26 00:32:14;;;;;;;7.05;5.40;;;;;;;-0.22;78.85;96129.09;5113525;28;20081;-66
2021/12/26 00:34:41;;;;;;;6.50;4.70;;;;;;;-0.23;77.98;96130.81;5113900;28;20193;-67
2021/12/26 00:37:07;;;;;;;12.60;7.13;;;;;;;-0.43;78.64;96130.84;5113858;28;20023;-67
2021/12/26 00:39:34;;;;;;;27.35;12.15;;;;;;;-0.40;78.89;96129.13;5113761;28;20119;-63
2021/12/26 00:42:01;;;;;;;24.02;10.70;;;;;;;-0.46;79.01;96120.56;5113862;28;20023;-66
2021/12/26 00:44:27;;;;;;;7.40;5.35;;;;;;;-0.55;79.88;96124.84;5113820;28;20019;-63
2021/12/26 00:46:56;;;;;;;11.70;7.40;;;;;;;-0.47;80.99;96124.84;5113719;28;20480;-63
2021/12/26 00:49:22;;;;;;;12.30;7.70;;;;;;;-0.41;80.39;96129.13;5113753;28;20089;-66
2021/12/26 00:51:49;;;;;;;13.55;6.75;;;;;;;-0.40;79.99;96128.25;5113866;28;20031;-65
2021/12/26 00:54:15;;;;;;;12.18;6.00;;;;;;;-0.40;79.25;96135.97;5113655;28;20459;-67
2021/12/26 00:56:40;;;;;;;11.63;6.00;;;;;;;-0.35;78.91;96139.41;5113590;28;20118;-67
2021/12/26 00:59:06;;;;;;;9.57;6.43;;;;;;;-0.35;78.77;96136.84;5113404;28;20019;-64
2021/12/26 01:01:33;;;;;;;7.28;5.07;;;;;;;-0.42;78.73;96132.56;5113375;28;20026;-65
2021/12/26 01:03:59;;;;;;;8.50;5.20;;;;;;;-0.42;79.08;96130.00;5113394;28;20027;-67
2021/12/26 01:06:27;;;;;;;7.78;5.22;;;;;;;-0.43;78.79;96129.13;5113521;28;20093;-64
2021/12/26 01:08:52;;;;;;;11.73;6.45;;;;;;;-0.45;79.29;96133.41;5113453;28;20023;-64
2021/12/26 01:11:37;;;;;;;7.05;5.40;;;;;;;-0.44;79.32;96131.69;5113376;28;20028;-65
2021/12/26 01:14:10;;;;;;;10.20;7.40;;;;;;;-0.52;79.48;96130.00;5113351;28;20039;-67
2021/12/26 01:16:37;;;;;;;11.05;7.45;;;;;;;-0.48;79.27;96132.56;5113355;28;20055;-64
2021/12/26 01:19:12;;;;;;;12.18;8.65;;;;;;;-0.46;78.88;96128.25;5113367;28;20076;-66
2021/12/26 01:21:38;;;;;;;9.07;6.13;;;;;;;-0.60;79.16;96118.84;5113411;28;20462;-65
2021/12/26 01:24:08;;;;;;;8.98;5.70;;;;;;;-0.62;79.79;96120.59;5113105;28;20050;-64
2021/12/26 01:26:35;;;;;;;6.32;4.88;;;;;;;-0.66;79.33;96124.84;5113354;28;20024;-68
2021/12/26 01:29:03;;;;;;;5.93;4.13;;;;;;;-0.69;78.78;96124.00;5113382;28;20449;-64
2021/12/26 01:31:28;;;;;;;7.47;5.25;;;;;;;-0.87;78.77;96120.59;5113195;28;20031;-65
2021/12/26 01:33:58;;;;;;;9.00;4.85;;;;;;;-0.98;79.63;96120.56;5113306;28;20103;-67
2021/12/26 01:36:25;;;;;;;6.90;4.82;;;;;;;-1.02;80.56;96129.97;5113211;28;20103;-66
2021/12/26 01:38:51;;;;;;;7.88;5.40;;;;;;;-1.00;80.27;96126.56;5113212;28;20522;-67
2021/12/26 01:41:18;;;;;;;8.27;5.70;;;;;;;-1.04;80.52;96116.28;5113365;28;20031;-65
2021/12/26 01:43:46;;;;;;;8.98;6.03;;;;;;;-1.00;82.24;96116.31;5115901;28;20495;-65
2021/12/26 01:46:13;;;;;;;7.18;5.18;;;;;;;-0.98;81.71;96114.56;5116912;28;20045;-64
2021/12/26 01:48:39;;;;;;;7.38;5.05;;;;;;;-1.04;81.21;96106.03;5117106;28;20377;-69
2021/12/26 01:51:05;;;;;;;6.35;4.40;;;;;;;-1.02;81.23;96109.44;5116939;28;20027;-66
2021/12/26 01:53:36;;;;;;;8.52;4.97;;;;;;;-1.04;80.99;96110.28;5117102;28;20365;-63
2021/12/26 01:56:08;;;;;;;8.45;5.53;;;;;;;-1.10;81.36;96102.56;5117070;28;20384;-66
2021/12/26 01:58:36;;;;;;;8.20;5.00;;;;;;;-1.03;81.11;96110.28;5116784;28;20035;-66
2021/12/26 02:01:09;;;;;;;8.35;5.63;;;;;;;-1.02;81.04;96109.44;5116777;28;20024;-65
2021/12/26 02:03:35;;;;;;;6.80;5.30;;;;;;;-1.06;81.71;96120.56;5116813;28;20030;-67
2021/12/26 02:06:03;;;;;;;9.60;5.57;;;;;;;-0.96;81.59;96112.88;5116771;28;20026;-68
2021/12/26 02:08:29;;;;;;;8.23;5.32;;;;;;;-0.92;81.14;96102.59;5116651;28;20361;-67
2021/12/26 02:10:55;;;;;;;7.32;4.97;;;;;;;-1.05;81.45;96093.19;5116567;28;20027;-64
2021/12/26 02:13:20;;;;;;;8.50;5.80;;;;;;;-0.95;81.55;96096.59;5116433;28;20019;-64
2021/12/26 02:15:46;;;;;;;6.50;4.88;;;;;;;-0.92;81.06;96099.16;5116494;28;20020;-66
2021/12/26 02:18:12;;;;;;;8.70;5.20;;;;;;;-0.93;81.03;96100.03;5116469;28;20058;-67
2021/12/26 02:23:32;;;;;;;7.45;4.75;;;;;;;-0.89;80.57;96094.03;5116195;28;20074;-67
2021/12/26 02:28:26;;;;;;;7.45;5.50;;;;;;;-0.84;80.62;96101.75;5116261;28;20028;-63
2021/12/26 02:30:53;;;;;;;9.90;6.70;;;;;;;-0.84;80.59;96102.59;5116132;28;20032;-67
2021/12/26 02:33:19;;;;;;;10.68;6.13;;;;;;;-0.85;81.46;96093.19;5116170;28;20022;-68
2021/12/26 02:35:48;;;;;;;7.90;5.40;;;;;;;-0.90;81.26;96087.19;5116069;28;20080;-64
2021/12/26 02:38:14;;;;;;;11.20;5.40;;;;;;;-0.93;81.91;96085.47;5116099;28;20418;-64
2021/12/26 02:40:41;;;;;;;9.52;5.65;;;;;;;-0.93;82.37;96088.03;5115931;28;20397;-67
2021/12/26 02:43:07;;;;;;;7.95;5.72;;;;;;;-0.86;82.36;96098.31;5115961;28;20016;-66
2021/12/26 02:45:34;;;;;;;8.48;5.65;;;;;;;-0.82;82.35;96090.59;5115917;28;20469;-65
2021/12/26 02:48:00;;;;;;;11.13;5.97;;;;;;;-0.74;81.65;96089.75;5115871;28;20052;-66
2021/12/26 02:50:29;;;;;;;10.20;7.20;;;;;;;-0.72;81.35;96088.88;5115834;28;20031;-66
2021/12/26 02:52:58;;;;;;;9.83;7.30;;;;;;;-0.62;82.15;96092.31;5115347;27;20059;-67
2021/12/26 02:55:24;;;;;;;10.32;7.28;;;;;;;-0.62;81.59;96101.72;5115343;28;20063;-68
2021/12/26 02:57:52;;;;;;;13.13;8.13;;;;;;;-0.61;80.86;96098.31;5115566;28;20055;-63
2021/12/26 03:00:21;;;;;;;9.82;6.07;;;;;;;-0.71;80.69;96102.59;5115587;28;20106;-62
2021/12/26 03:02:50;;;;;;;10.27;6.30;;;;;;;-0.69;81.01;96103.47;5115649;28;20474;-66
2021/12/26 03:05:17;;;;;;;7.25;5.30;;;;;;;-0.64;80.80;96102.59;5115704;28;20396;-65
2021/12/26 03:07:45;;;;;;;13.32;6.45;;;;;;;-0.65;80.62;96098.31;5115475;28;20431;-66
2021/12/26 03:10:21;;;;;;;11.00;7.28;;;;;;;-0.63;80.73;96103.47;5115297;27;20076;-69
2021/12/26 03:12:48;;;;;;;14.43;9.32;;;;;;;-0.60;80.68;96102.59;5115412;28;20488;-68
2021/12/26 03:15:13;;;;;;;12.55;7.55;;;;;;;-0.52;80.95;96106.00;5115439;28;20020;-65
2021/12/26 03:17:39;;;;;;;8.07;5.20;;;;;;;-0.57;80.58;96095.72;5115501;28;20480;-64
2021/12/26 03:20:10;;;;;;;7.45;5.32;;;;;;;-0.57;80.71;96102.59;5115228;28;20031;-67
2021/12/26 03:22:36;;;;;;;9.38;5.43;;;;;;;-0.64;80.83;96110.31;5114750;28;20062;-67
2021/12/26 03:25:03;;;;;;;10.18;5.25;;;;;;;-0.60;81.22;96106.00;5115231;28;21061;-66
2021/12/26 03:27:29;;;;;;;8.07;5.53;;;;;;;-0.51;81.36;96105.16;5115036;28;20103;-67
2021/12/26 03:29:54;;;;;;;9.57;5.85;;;;;;;-0.51;81.35;96111.13;5115202;28;20023;-65
2021/12/26 03:32:20;;;;;;;6.85;5.05;;;;;;;-0.57;81.79;96108.56;5114919;28;20027;-66
2021/12/26 03:34:50;;;;;;;8.63;5.22;;;;;;;-0.55;83.01;96108.56;5114818;28;20053;-65
2021/12/26 03:37:16;;;;;;;7.82;4.63;;;;;;;-0.47;83.56;96101.72;5114818;28;20023;-66
2021/12/26 03:39:42;;;;;;;12.00;6.25;;;;;;;-0.54;83.20;96106.00;5115021;28;20024;-69
2021/12/26 03:42:08;;;;;;;9.02;6.32;;;;;;;-0.45;82.97;96110.28;5114843;28;20016;-64
2021/12/26 03:44:33;;;;;;;9.60;6.28;;;;;;;-0.42;82.98;96106.88;5114701;28;20051;-68
2021/12/26 03:46:59;;;;;;;8.90;5.53;;;;;;;-0.33;82.45;96114.53;5114806;28;20023;-68
2021/12/26 03:49:26;;;;;;;9.68;5.93;;;;;;;-0.31;81.71;96123.13;5114707;28;20473;-65
2021/12/26 03:51:51;;;;;;;8.43;5.25;;;;;;;-0.32;81.95;96113.69;5114622;28;20391;-65
2021/12/26 03:54:17;;;;;;;8.00;5.40;;;;;;;-0.36;81.88;96114.53;5114642;28;20080;-66
2021/12/26 03:56:43;;;;;;;8.52;5.72;;;;;;;-0.33;82.47;96123.97;5114555;28;20063;-67
2021/12/26 03:59:09;;;;;;;8.90;6.25;;;;;;;-0.32;82.34;96110.25;5114481;28;20030;-64
2021/12/26 04:01:34;;;;;;;9.20;5.65;;;;;;;-0.37;82.35;96112.84;5114581;28;20138;-64
2021/12/26 04:04:00;;;;;;;6.90;5.55;;;;;;;-0.55;82.82;96101.72;5114463;28;20030;-69
2021/12/26 04:06:26;;;;;;;8.50;5.30;;;;;;;-0.53;82.62;96115.44;5114029;28;20015;-64
2021/12/26 04:08:52;;;;;;;8.73;5.10;;;;;;;-0.53;82.65;96110.31;5114313;28;20038;-66
2021/12/26 04:11:18;;;;;;;8.55;5.50;;;;;;;-0.50;82.43;96106.88;5114089;28;20088;-65
2021/12/26 04:13:44;;;;;;;7.60;5.45;;;;;;;-0.53;82.66;96106.88;5114350;28;20020;-63
2021/12/26 04:16:09;;;;;;;9.75;5.78;;;;;;;-0.58;83.34;96106.88;5114205;28;20469;-69
2021/12/26 04:18:35;;;;;;;10.05;6.47;;;;;;;-0.57;83.36;96102.59;5114054;28;20042;-65
2021/12/26 04:21:01;;;;;;;11.57;6.75;;;;;;;-0.54;83.64;96100.84;5113930;28;20016;-63
2021/12/26 04:23:27;;;;;;;8.32;5.32;;;;;;;-0.38;83.38;96106.00;5113779;28;20130;-66
2021/12/26 04:25:52;;;;;;;8.95;5.72;;;;;;;-0.29;82.69;96115.41;5114012;28;20047;-67
2021/12/26 04:28:19;;;;;;;9.32;6.40;;;;;;;-0.26;82.40;96110.25;5114032;28;20023;-64
2021/12/26 04:30:46;;;;;;;7.75;5.93;;;;;;;-0.16;81.96;96116.22;5113974;28;20034;-62
2021/12/26 04:33:11;;;;;;;10.77;5.80;;;;;;;-0.11;81.48;96123.94;5113892;28;20016;-65
2021/12/26 04:35:37;;;;;;;10.13;6.65;;;;;;;-0.11;81.16;96126.50;5113774;28;20027;-62
2021/12/26 04:38:03;;;;;;;8.35;6.10;;;;;;;-0.18;81.02;96112.81;5113877;28;20470;-66
2021/12/26 04:40:29;;;;;;;8.35;5.85;;;;;;;-0.21;81.17;96123.94;5113796;28;20073;-65
2021/12/26 04:42:55;;;;;;;8.25;5.53;;;;;;;-0.20;81.17;96117.97;5113782;28;20028;-66
2021/12/26 04:45:21;;;;;;;11.23;5.82;;;;;;;-0.15;81.14;96126.50;5113788;28;20026;-65
2021/12/26 04:47:49;;;;;;;8.10;5.13;;;;;;;-0.12;80.92;96130.78;5113745;28;20358;-65
2021/12/26 04:50:18;;;;;;;6.82;5.20;;;;;;;-0.20;80.70;96135.97;5113496;28;20031;-66
2021/12/26 04:52:45;;;;;;;9.52;5.82;;;;;;;-0.20;81.12;96129.94;5113792;28;20347;-66
2021/12/26 04:55:13;;;;;;;8.80;6.18;;;;;;;-0.26;81.36;96123.97;5113782;28;20526;-67
2021/12/26 04:57:38;;;;;;;10.30;7.18;;;;;;;-0.23;81.56;96123.09;5113604;28;20072;-69
2021/12/26 05:00:08;;;;;;;10.80;7.70;;;;;;;-0.22;81.21;96126.50;5113658;28;20011;-66
2021/12/26 05:02:39;;;;;;;8.90;6.88;;;;;;;-0.27;81.70;96123.97;5113631;28;20032;-66
2021/12/26 05:05:08;;;;;;;7.88;5.82;;;;;;;-0.29;81.45;96123.13;5113564;28;20548;-62
2021/12/26 05:07:35;;;;;;;7.85;5.45;;;;;;;-0.31;81.63;96122.25;5113654;28;20111;-66
2021/12/26 05:10:01;;;;;;;9.50;6.72;;;;;;;-0.37;82.38;96122.28;5113425;28;20374;-65
2021/12/26 05:12:27;;;;;;;11.45;6.68;;;;;;;-0.47;82.89;96117.16;5113449;28;20032;-65
2021/12/26 05:14:55;;;;;;;8.60;5.45;;;;;;;-0.48;83.42;96114.56;5113490;28;20027;-65
2021/12/26 05:17:21;;;;;;;10.00;6.70;;;;;;;-0.43;83.55;96115.41;5115446;28;20024;-63
2021/12/26 05:19:47;;;;;;;11.35;6.20;;;;;;;-0.40;83.30;96123.97;5117496;28;20016;-69
2021/12/26 05:22:12;;;;;;;9.40;5.72;;;;;;;-0.30;83.31;96123.97;5117486;28;20038;-67
2021/12/26 05:24:39;;;;;;;9.25;5.78;;;;;;;-0.29;83.55;96125.69;5117244;28;20136;-62
2021/12/26 05:27:05;;;;;;;8.07;5.93;;;;;;;-0.29;83.25;96113.69;5117484;28;20388;-65
2021/12/26 05:29:31;;;;;;;10.13;6.32;;;;;;;-0.22;82.70;96121.38;5117346;28;20012;-67
2021/12/26 05:31:56;;;;;;;8.88;6.32;;;;;;;-0.21;82.72;96123.94;5117191;28;20027;-68
2021/12/26 05:34:22;;;;;;;16.60;7.03;;;;;;;-0.13;82.87;96126.50;5117410;28;20028;-66
2021/12/26 05:36:50;;;;;;;9.98;7.30;;;;;;;-0.08;82.41;96123.94;5117347;28;20044;-66
2021/12/26 05:39:16;;;;;;;12.07;6.65;;;;;;;-0.08;82.37;96131.63;5117265;28;20072;-67
2021/12/26 05:41:41;;;;;;;10.93;6.80;;;;;;;-0.08;82.83;96129.94;5117188;27;20032;-65
2021/12/26 05:44:09;;;;;;;8.45;5.32;;;;;;;-0.05;82.47;96118.78;5117241;28;20015;-64
2021/12/26 05:46:37;;;;;;;9.43;6.53;;;;;;;-0.04;82.33;96129.06;5117022;28;20055;-66
2021/12/26 05:49:03;;;;;;;23.45;14.13;;;;;;;-0.02;82.48;96124.78;5116999;28;20020;-66
2021/12/26 05:51:29;;;;;;;13.35;8.63;;;;;;;0.00;83.20;96127.34;5116882;28;20023;-64
2021/12/26 05:53:55;;;;;;;10.90;6.75;;;;;;;-0.05;83.19;96129.06;5116950;28;20021;-67
2021/12/26 05:56:20;;;;;;;9.88;6.40;;;;;;;-0.04;83.54;96129.06;5116952;27;20057;-67
2021/12/26 05:58:46;;;;;;;9.98;6.72;;;;;;;-0.01;84.08;96129.06;5116909;28;20111;-62
2021/12/26 06:01:12;;;;;;;13.02;6.45;;;;;;;0.10;85.40;96126.47;5116756;28;20015;-65
2021/12/26 06:03:38;;;;;;;11.07;7.35;;;;;;;0.15;85.09;96117.88;5116925;28;20488;-64
2021/12/26 06:06:04;;;;;;;9.88;6.30;;;;;;;0.27;85.46;96122.94;5116777;28;20084;-65
2021/12/26 06:08:30;;;;;;;12.32;6.88;;;;;;;0.36;84.97;96124.66;5116591;28;20055;-65
2021/12/26 06:10:55;;;;;;;8.18;6.60;;;;;;;0.35;84.76;96125.50;5116818;28;20062;-66
2021/12/26 06:13:21;;;;;;;10.63;7.45;;;;;;;0.46;84.78;96131.47;5116623;28;20424;-64
2021/12/26 06:15:46;;;;;;;12.10;7.60;;;;;;;0.56;84.32;96123.69;5116440;28;20020;-63
2021/12/26 06:18:12;;;;;;;11.48;7.82;;;;;;;0.60;84.10;96131.38;5116480;28;20057;-67
2021/12/26 06:20:38;;;;;;;11.77;8.88;;;;;;;0.66;83.56;96129.66;5116370;28;20141;-64
2021/12/26 06:23:04;;;;;;;13.63;8.82;;;;;;;0.70;82.91;96127.06;5116104;28;20122;-64
2021/12/26 06:25:31;;;;;;;13.70;8.10;;;;;;;0.75;82.22;96133.03;5116264;28;20020;-67
2021/12/26 06:27:56;;;;;;;10.40;7.30;;;;;;;0.79;82.01;96146.75;5116348;28;20381;-65
2021/12/26 06:30:22;;;;;;;12.43;7.95;;;;;;;0.74;81.87;96141.63;5116038;28;20020;-64
2021/12/26 06:32:48;;;;;;;11.40;7.72;;;;;;;0.81;81.56;96157.88;5116043;28;20035;-68
2021/12/26 06:35:14;;;;;;;11.32;7.85;;;;;;;0.85;81.37;96166.47;5116120;28;20035;-67
2021/12/26 06:37:41;;;;;;;9.48;6.68;;;;;;;0.90;81.61;96164.69;5116138;28;20095;-67
2021/12/26 06:40:09;;;;;;;10.85;7.20;;;;;;;0.93;81.31;96164.69;5116332;28;20043;-68
2021/12/26 06:42:41;;;;;;;9.32;6.10;;;;;;;0.89;81.49;96163.00;5115998;28;20107;-65
2021/12/26 06:45:11;;;;;;;8.57;6.40;;;;;;;0.95;81.35;96170.69;5116091;28;20069;-65
2021/12/26 06:47:37;;;;;;;13.98;6.78;;;;;;;0.99;81.30;96167.22;5115948;28;20031;-68
2021/12/26 06:50:05;;;;;;;13.25;8.82;;;;;;;1.03;81.26;96170.66;5115943;28;20024;-64
2021/12/26 06:52:30;;;;;;;10.85;7.50;;;;;;;0.99;81.58;96171.50;5115889;28;20020;-67
2021/12/26 06:54:56;;;;;;;12.18;6.85;;;;;;;0.94;81.96;96163.84;5115744;28;20354;-62
2021/12/26 06:57:22;;;;;;;10.45;6.22;;;;;;;1.05;82.37;96173.22;5115638;28;20022;-67
2021/12/26 06:59:48;;;;;;;11.10;7.72;;;;;;;1.07;82.15;96171.47;5115533;28;20027;-64
2021/12/26 07:02:14;;;;;;;9.65;7.03;;;;;;;0.99;83.14;96174.09;5115709;28;20020;-61
2021/12/26 07:04:39;;;;;;;21.58;15.57;;;;;;;1.07;83.44;96174.91;5115637;28;20465;-65
2021/12/26 07:07:05;;;;;;;21.00;14.02;;;;;;;1.20;83.69;96175.69;5115565;28;20038;-64
2021/12/26 07:09:31;;;;;;;17.05;12.05;;;;;;;1.29;83.40;96174.75;5115687;28;20457;-66
2021/12/26 07:11:57;;;;;;;16.77;10.43;;;;;;;1.38;83.20;96168.69;5115500;28;20427;-63
2021/12/26 07:14:23;;;;;;;18.67;13.60;;;;;;;1.39;83.18;96167.84;5115437;28;20019;-66
2021/12/26 07:16:48;;;;;;;14.32;9.98;;;;;;;1.43;83.81;96159.22;5115525;28;20023;-67
2021/12/26 07:19:14;;;;;;;19.83;14.05;;;;;;;1.57;83.78;96159.09;5115376;28;20075;-66
2021/12/26 07:21:40;;;;;;;13.57;9.45;;;;;;;1.64;84.08;96147.88;5115200;27;20016;-66
2021/12/26 07:24:06;;;;;;;13.80;9.63;;;;;;;1.81;83.90;96152.00;5115047;28;20118;-65
2021/12/26 07:26:32;;;;;;;15.52;10.32;;;;;;;1.96;83.90;96155.31;5115208;28;20506;-64
2021/12/26 07:28:59;;;;;;;11.13;8.05;;;;;;;2.10;83.36;96150.84;5115155;28;20026;-65
2021/12/26 07:31:25;;;;;;;47.15;28.15;;;;;;;2.25;83.43;96159.28;5114978;28;20036;-64
2021/12/26 07:33:51;;;;;;;31.90;20.63;;;;;;;2.41;82.98;96160.00;5114950;28;20019;-66
2021/12/26 07:36:17;;;;;;;18.15;12.38;;;;;;;2.51;82.41;96158.16;5114945;28;20039;-62
2021/12/26 07:38:43;;;;;;;15.13;9.05;;;;;;;2.62;81.99;96153.69;5114973;28;20015;-65
2021/12/26 07:41:09;;;;;;;13.27;8.27;;;;;;;2.74;81.46;96157.84;5114320;28;20492;-67
2021/12/26 07:43:34;;;;;;;10.13;7.82;;;;;;;2.85;81.11;96151.69;5114834;27;20477;-69
2021/12/26 07:46:00;;;;;;;19.30;9.98;;;;;;;2.97;80.32;96161.00;5114727;28;20081;-63
2021/12/26 07:48:25;;;;;;;17.17;11.05;;;;;;;3.03;80.24;96153.16;5114844;28;20015;-66
2021/12/26 07:50:51;;;;;;;16.25;11.45;;;;;;;3.09;79.88;96163.41;5114723;28;20028;-65
2021/12/26 07:53:17;;;;;;;14.55;9.98;;;;;;;3.17;79.70;96165.91;5114723;28;20465;-67
2021/12/26 07:55:42;;;;;;;28.13;16.27;;;;;;;3.22;78.56;96153.75;5114514;28;20381;-64
2021/12/26 07:58:08;;;;;;;29.52;18.98;;;;;;;3.28;78.43;96156.25;5114615;28;20016;-69
2021/12/26 08:00:34;;;;;;;23.08;14.00;;;;;;;3.37;78.98;96149.25;5114400;28;20110;-69
2021/12/26 08:03:01;;;;;;;45.45;29.08;;;;;;;3.52;78.88;96161.03;5114573;28;20106;-65
2021/12/26 08:05:27;;;;;;;33.03;21.23;;;;;;;3.62;78.68;96152.28;5114362;28;20032;-67
2021/12/26 08:07:52;;;;;;;14.18;9.77;;;;;;;3.69;78.43;96165.97;5114377;27;20016;-67
2021/12/26 08:10:19;;;;;;;24.73;16.00;;;;;;;3.82;78.81;96161.41;5114142;28;20370;-64
2021/12/26 08:12:44;;;;;;;14.82;9.77;;;;;;;3.90;78.92;96158.72;5114298;28;20385;-67
2021/12/26 08:15:10;;;;;;;17.95;11.95;;;;;;;4.02;78.37;96161.09;5114309;28;20015;-62
2021/12/26 08:17:38;;;;;;;16.23;10.98;;;;;;;4.12;77.87;96161.75;5114302;28;20016;-66
2021/12/26 08:20:05;;;;;;;18.67;11.70;;;;;;;4.23;76.87;96158.97;5114299;28;20027;-63
2021/12/26 08:22:31;;;;;;;17.88;12.65;;;;;;;4.35;76.65;96157.91;5114115;28;20020;-66
2021/12/26 08:24:57;;;;;;;19.48;12.43;;;;;;;4.47;76.70;96161.97;5113984;28;20047;-68
2021/12/26 08:27:23;;;;;;;68.07;43.70;;;;;;;4.57;77.15;96172.16;5113879;28;20016;-66
2021/12/26 08:29:48;;;;;;;50.97;32.40;;;;;;;4.63;76.79;96172.03;5113862;28;20507;-63
2021/12/26 08:32:16;;;;;;;31.80;20.80;;;;;;;4.73;76.32;96180.47;5113851;28;20024;-65
2021/12/26 08:34:47;;;;;;;24.55;17.23;;;;;;;4.80;76.59;96175.13;5114003;28;20031;-64
2021/12/26 08:37:13;;;;;;;15.10;11.65;;;;;;;4.89;77.23;96174.09;5113749;28;20028;-66
2021/12/26 08:39:41;;;;;;;19.23;13.48;;;;;;;4.95;77.11;96177.44;5114056;28;20431;-64
2021/12/26 08:42:10;;;;;;;18.98;13.48;;;;;;;5.04;77.11;96180.69;5113760;28;20043;-67
2021/12/26 08:44:36;;;;;;;31.25;19.75;;;;;;;5.12;76.51;96177.06;5113696;28;20027;-63
2021/12/26 08:47:03;;;;;;;33.75;22.08;;;;;;;5.22;75.54;96175.97;5113814;28;20016;-64
2021/12/26 08:49:29;;;;;;;81.85;44.28;;;;;;;5.30;75.01;96171.47;5113746;28;20030;-64
2021/12/26 08:51:55;;;;;;;160.80;80.90;;;;;;;5.40;74.92;96161.75;5112790;28;20023;-63
2021/12/26 08:54:24;;;;;;;98.30;52.47;;;;;;;5.48;74.96;96171.06;5113541;28;20380;-67
2021/12/26 08:56:50;;;;;;;54.88;33.08;;;;;;;5.49;74.07;96162.41;5113471;28;20383;-66
2021/12/26 08:59:15;;;;;;;45.75;27.42;;;;;;;5.55;74.95;96170.03;5113544;28;20016;-65
2021/12/26 09:01:43;;;;;;;27.00;18.73;;;;;;;5.63;75.22;96169.88;5113590;28;20020;-67
2021/12/26 09:04:09;;;;;;;53.10;32.53;;;;;;;5.67;75.25;96167.16;5113574;28;20073;-68
2021/12/26 09:06:34;;;;;;;29.20;18.42;;;;;;;5.69;74.85;96162.75;5113453;28;20031;-66
2021/12/26 09:09:00;;;;;;;18.00;13.93;;;;;;;5.70;74.42;96158.44;5113530;28;20027;-65
2021/12/26 09:11:25;;;;;;;20.17;13.25;;;;;;;5.71;74.13;96159.28;5113372;28;20024;-64
2021/12/26 09:13:51;;;;;;;25.10;16.83;;;;;;;5.72;74.43;96166.19;5113445;28;20020;-64
2021/12/26 09:16:17;;;;;;;28.30;18.70;;;;;;;5.75;74.90;96166.94;5113458;28;20043;-65
2021/12/26 09:18:43;;;;;;;18.35;13.18;;;;;;;5.78;73.90;96166.03;5113355;28;20024;-68
2021/12/26 09:21:09;;;;;;;15.30;12.15;;;;;;;5.80;72.67;96159.91;5113291;28;20107;-64
2021/12/26 09:23:35;;;;;;;20.88;14.32;;;;;;;5.86;73.86;96152.84;5113250;28;20043;-65
2021/12/26 09:26:00;;;;;;;24.88;17.60;;;;;;;5.87;73.70;96151.97;5113562;28;20107;-64
2021/12/26 09:28:28;;;;;;;31.70;22.92;;;;;;;5.88;73.78;96146.75;5113435;28;20107;-62
2021/12/26 09:30:55;;;;;;;28.70;20.77;;;;;;;5.92;74.06;96152.69;5113183;28;20465;-68
2021/12/26 09:33:24;;;;;;;24.42;15.93;;;;;;;5.90;74.26;96151.91;5113391;28;20027;-68
2021/12/26 09:35:50;;;;;;;19.20;13.35;;;;;;;5.91;74.87;96156.19;5113281;28;20111;-65
2021/12/26 09:38:17;;;;;;;23.48;17.02;;;;;;;5.91;75.67;96154.47;5113303;28;20027;-65
2021/12/26 09:40:51;;;;;;;17.17;12.82;;;;;;;5.93;75.79;96154.41;5113200;28;20028;-62
2021/12/26 09:43:16;;;;;;;19.05;12.75;;;;;;;5.91;75.75;96145.81;5113250;28;20164;-64
2021/12/26 09:45:42;;;;;;;19.83;14.35;;;;;;;5.84;75.23;96144.25;5113145;28;20102;-67
2021/12/26 09:48:11;;;;;;;17.20;13.35;;;;;;;5.83;74.56;96146.00;5113173;28;20016;-68
2021/12/26 09:50:37;;;;;;;20.00;14.05;;;;;;;5.92;74.22;96144.91;5113153;28;20016;-65
2021/12/26 09:53:04;;;;;;;35.78;23.08;;;;;;;5.97;74.13;96147.38;5113186;28;20031;-65
2021/12/26 09:55:32;;;;;;;32.00;20.55;;;;;;;5.96;74.37;96149.13;5112977;28;20035;-66
2021/12/26 09:57:58;;;;;;;24.27;18.85;;;;;;;5.94;74.00;96149.16;5113176;28;20024;-62
2021/12/26 10:00:38;;;;;;;22.38;17.13;;;;;;;5.95;72.33;96144.81;5113145;28;20027;-66
2021/12/26 10:03:35;;;;;;;27.30;18.45;;;;;;;5.99;71.50;96146.44;5114503;28;20023;-67
2021/12/26 10:06:09;;;;;;;32.53;21.02;;;;;;;6.03;71.60;96152.44;5116726;28;20080;-64
2021/12/26 10:09:21;;;;;;;22.75;14.88;;;;;;;6.06;72.54;96145.41;5116626;28;20456;-62
2021/12/26 10:11:55;;;;;;;19.42;11.93;;;;;;;6.09;72.61;96133.25;5104230;28;20048;-63
2021/12/26 10:14:48;;;;;;;17.88;11.68;;;;;;;6.15;71.14;96141.75;5116630;28;20127;-64
2021/12/26 10:17:26;;;;;;;17.55;13.27;;;;;;;6.22;69.81;96133.78;5115964;28;20032;-68
2021/12/26 10:19:59;;;;;;;21.30;14.07;;;;;;;6.31;70.45;96138.72;5115238;28;20366;-66
2021/12/26 10:22:28;;;;;;;14.80;10.38;;;;;;;6.42;70.78;96138.44;5116655;28;20033;-66
2021/12/26 10:24:57;;;;;;;15.88;10.23;;;;;;;6.43;68.86;96134.94;5116279;28;20035;-67
2021/12/26 10:27:30;;;;;;;13.70;9.63;;;;;;;6.54;68.67;96125.06;5116388;28;20537;-67
2021/12/26 10:30:00;;;;;;;12.77;9.23;;;;;;;6.66;68.27;96125.63;5116363;28;20531;-67
2021/12/26 10:32:29;;;;;;;13.73;8.32;;;;;;;6.78;67.75;96125.28;5116083;28;20045;-66
2021/12/26 10:35:19;;;;;;;14.63;10.60;;;;;;;6.90;68.20;96113.69;5116278;28;20045;-66
2021/12/26 10:37:48;;;;;;;23.48;17.20;;;;;;;6.97;69.55;96110.88;5115901;28;20115;-64
2021/12/26 10:40:23;;;;;;;20.83;15.37;;;;;;;7.02;70.74;96117.66;5116224;28;20027;-67
2021/12/26 10:42:53;;;;;;;31.63;19.17;;;;;;;7.07;70.66;96109.69;5116036;28;20448;-66
2021/12/26 10:45:20;;;;;;;;;;;;;;;7.13;70.49;96125.09;5116401;28;20031;-68
2021/12/26 10:48:02;;;;;;;24.92;17.08;;;;;;;7.18;70.82;96124.97;5115962;28;20340;-65
2021/12/26 10:50:33;;;;;;;15.57;11.40;;;;;;;7.22;71.01;96120.53;5115966;28;20427;-68
2021/12/26 10:53:05;;;;;;;17.33;12.02;;;;;;;7.29;70.50;96117.66;5116014;28;20024;-61
2021/12/26 10:55:39;;;;;;;13.73;10.48;;;;;;;7.33;69.87;96126.25;5115754;28;20376;-64
2021/12/26 10:58:31;;;;;;;12.52;9.80;;;;;;;7.29;69.79;96115.06;5114467;28;20024;-67
2021/12/26 11:01:02;;;;;;;16.60;11.57;;;;;;;7.35;69.34;96120.97;5115834;28;20024;-65
2021/12/26 11:03:31;;;;;;;12.98;10.27;;;;;;;7.38;69.38;96119.16;5115801;28;20028;-67
2021/12/26 11:06:06;;;;;;;20.50;13.95;;;;;;;7.39;70.00;96110.44;5115829;28;20131;-68
2021/12/26 11:08:38;;;;;;;26.30;17.10;;;;;;;7.41;70.24;96116.41;5115434;28;20024;-69
2021/12/26 11:11:16;;;;;;;25.60;16.70;;;;;;;7.45;70.50;96112.84;5115353;28;20504;-62
2021/12/26 11:13:47;;;;;;;53.28;37.53;;;;;;;7.46;70.67;96106.72;5115481;28;20030;-68
2021/12/26 11:16:15;;;;;;;20.90;13.90;;;;;;;7.52;72.28;96099.59;5115087;28;20399;-67
2021/12/26 11:18:41;;;;;;;21.17;15.40;;;;;;;7.53;71.63;96104.75;5115338;28;20031;-66
2021/12/26 11:21:13;;;;;;;17.58;12.05;;;;;;;7.53;72.25;96098.72;5115072;28;20031;-66
2021/12/26 11:23:41;;;;;;;14.52;11.02;;;;;;;7.65;71.78;96103.50;5114881;28;20044;-63
2021/12/26 11:26:10;;;;;;;16.02;11.05;;;;;;;7.73;73.55;96103.25;5115403;28;20073;-63
2021/12/26 11:28:43;;;;;;;12.45;7.78;;;;;;;7.76;73.13;96110.97;5115298;28;20051;-64
2021/12/26 11:31:13;;;;;;;13.73;7.63;;;;;;;7.81;69.56;96101.25;5115083;27;20103;-68
2021/12/26 11:33:42;;;;;;;9.55;7.50;;;;;;;7.79;69.67;96099.59;5114833;28;20111;-66
2021/12/26 11:36:11;;;;;;;10.23;7.72;;;;;;;7.86;69.49;96090.69;5115069;28;20477;-66